Station Historical Data
Daily Summary for September 21, 2017 Units:  English    Metric   Both
« Previous Day
Next Day »
Daily Weekly Monthly Yearly Custom
  High: Low: Average:
Temperature: 84.9 °F 58.4 °F 70.7 °F
Dew Point: 67.5 °F 56.0 °F 61.4 °F
Humidity: 92% 45% 74%
Wind Speed: 10.0mph 0.0mph 1.5mph
Wind Gust: 13.0mph - -
Wind- - ENE
Pressure: 30.11 in 30.01 in -
Precipitation: 0.00 in    
Historical Graphs
 
 
Tabular Data for September 21, 2017
Time Temperature Dew Point Pressure Wind Wind Speed Wind Gust Humidity Rainfall Rate (Hourly)
00:04 65.8 °F 60.2 °F 30.01 in Calm     82% 0.00 in
00:09 65.5 °F 59.9 °F 30.01 in Calm     82% 0.00 in
00:14 65.2 °F 59.6 °F 30.02 in Calm     82% 0.00 in
00:19 64.9 °F 59.6 °F 30.02 in Calm     83% 0.00 in
00:24 64.8 °F 59.9 °F 30.02 in Calm     84% 0.00 in
00:29 64.7 °F 59.8 °F 30.02 in Calm     84% 0.00 in
00:34 64.5 °F 59.6 °F 30.02 in Calm     84% 0.00 in
00:39 64.3 °F 59.4 °F 30.02 in Calm     84% 0.00 in
00:44 64.0 °F 59.1 °F 30.02 in Calm     84% 0.00 in
00:49 63.7 °F 59.1 °F 30.02 in Calm     85% 0.00 in
00:54 63.4 °F 58.8 °F 30.02 in Calm     85% 0.00 in
00:59 63.2 °F 58.9 °F 30.03 in Calm     86% 0.00 in
01:04 63.1 °F 58.8 °F 30.03 in Calm     86% 0.00 in
01:09 62.9 °F 58.6 °F 30.03 in Calm     86% 0.00 in
01:14 62.7 °F 58.5 °F 30.03 in Calm     86% 0.00 in
01:19 62.6 °F 58.7 °F 30.03 in Calm     87% 0.00 in
01:24 62.5 °F 58.6 °F 30.03 in Calm     87% 0.00 in
01:29 62.4 °F 58.5 °F 30.04 in Calm     87% 0.00 in
01:34 62.2 °F 58.3 °F 30.04 in Calm     87% 0.00 in
01:39 62.0 °F 58.4 °F 30.04 in Calm     88% 0.00 in
01:44 62.0 °F 58.4 °F 30.04 in Calm     88% 0.00 in
01:49 61.8 °F 58.2 °F 30.04 in Calm     88% 0.00 in
01:54 61.7 °F 58.1 °F 30.05 in Calm     88% 0.00 in
01:59 61.7 °F 58.4 °F 30.05 in Calm     89% 0.00 in
02:04 61.8 °F 58.2 °F 30.05 in Calm     88% 0.00 in
02:09 61.4 °F 57.8 °F 30.05 in Calm     88% 0.00 in
02:14 61.2 °F 57.6 °F 30.05 in Calm     88% 0.00 in
02:19 61.0 °F 57.4 °F 30.06 in Calm     88% 0.00 in
02:24 60.7 °F 57.4 °F 30.05 in Calm     89% 0.00 in
02:29 60.6 °F 57.3 °F 30.06 in Calm     89% 0.00 in
02:39 60.5 °F 57.2 °F 30.06 in Calm     89% 0.00 in
02:44 60.4 °F 57.5 °F 30.06 in Calm     90% 0.00 in
02:49 60.4 °F 57.5 °F 30.06 in Calm     90% 0.00 in
02:54 60.3 °F 57.4 °F 30.06 in Calm     90% 0.00 in
02:59 60.2 °F 57.3 °F 30.06 in Calm     90% 0.00 in
03:04 60.0 °F 57.1 °F 30.07 in Calm     90% 0.00 in
03:09 60.1 °F 57.2 °F 30.07 in Calm     90% 0.00 in
03:14 60.0 °F 57.1 °F 30.07 in Calm     90% 0.00 in
03:19 60.1 °F 57.2 °F 30.07 in Calm     90% 0.00 in
03:24 60.1 °F 57.2 °F 30.07 in Calm     90% 0.00 in
03:29 59.9 °F 57.0 °F 30.07 in Calm     90% 0.00 in
03:34 59.7 °F 57.1 °F 30.07 in Calm     91% 0.00 in
03:39 59.7 °F 57.1 °F 30.07 in Calm     91% 0.00 in
03:44 59.8 °F 57.2 °F 30.07 in Calm     91% 0.00 in
03:49 59.9 °F 57.3 °F 30.07 in Calm     91% 0.00 in
03:54 59.9 °F 57.3 °F 30.07 in Calm     91% 0.00 in
03:59 60.0 °F 57.4 °F 30.07 in Calm     91% 0.00 in
04:04 60.0 °F 57.4 °F 30.07 in Calm     91% 0.00 in
04:09 59.9 °F 57.3 °F 30.07 in Calm     91% 0.00 in
04:14 59.8 °F 57.2 °F 30.07 in Calm     91% 0.00 in
04:19 59.7 °F 57.1 °F 30.07 in Calm     91% 0.00 in
04:24 59.8 °F 57.2 °F 30.07 in Calm     91% 0.00 in
04:29 59.7 °F 57.1 °F 30.07 in Calm     91% 0.00 in
04:34 59.5 °F 56.9 °F 30.07 in Calm     91% 0.00 in
04:39 59.4 °F 56.8 °F 30.08 in Calm     91% 0.00 in
04:44 59.3 °F 56.7 °F 30.08 in Calm     91% 0.00 in
04:49 59.5 °F 56.9 °F 30.08 in Calm     91% 0.00 in
04:54 59.4 °F 56.8 °F 30.08 in Calm     91% 0.00 in
04:59 59.3 °F 56.7 °F 30.08 in Calm     91% 0.00 in
05:04 59.4 °F 56.8 °F 30.08 in Calm     91% 0.00 in
05:09 59.3 °F 56.7 °F 30.09 in Calm     91% 0.00 in
05:14 59.0 °F 56.4 °F 30.08 in Calm     91% 0.00 in
05:19 58.8 °F 56.2 °F 30.08 in Calm     91% 0.00 in
05:24 58.7 °F 56.1 °F 30.09 in Calm     91% 0.00 in
05:29 58.7 °F 56.4 °F 30.09 in Calm     92% 0.00 in
05:34 58.9 °F 56.6 °F 30.09 in Calm     92% 0.00 in
05:39 58.9 °F 56.3 °F 30.09 in Calm     91% 0.00 in
05:44 58.6 °F 56.0 °F 30.09 in Calm     91% 0.00 in
05:49 58.5 °F 56.2 °F 30.09 in Calm     92% 0.00 in
05:54 58.6 °F 56.3 °F 30.09 in Calm     92% 0.00 in
05:59 58.7 °F 56.4 °F 30.10 in Calm     92% 0.00 in
06:04 58.6 °F 56.3 °F 30.09 in Calm     92% 0.00 in
06:09 58.7 °F 56.4 °F 30.09 in Calm     92% 0.00 in
06:14 58.6 °F 56.3 °F 30.09 in Calm     92% 0.00 in
06:19 58.6 °F 56.3 °F 30.09 in Calm     92% 0.00 in
06:24 58.6 °F 56.3 °F 30.10 in Calm     92% 0.00 in
06:29 58.4 °F 56.1 °F 30.09 in Calm     92% 0.00 in
06:34 58.6 °F 56.3 °F 30.09 in Calm     92% 0.00 in
06:39 58.7 °F 56.4 °F 30.09 in Calm     92% 0.00 in
06:44 58.9 °F 56.6 °F 30.09 in Calm     92% 0.00 in
06:49 59.0 °F 56.7 °F 30.09 in Calm   1.0 mph 92% 0.00 in
06:54 59.0 °F 56.7 °F 30.09 in Calm   4.0 mph 92% 0.00 in
06:59 58.9 °F 56.6 °F 30.09 in SE 2.0 mph 2.0 mph 92% 0.00 in
07:04 58.9 °F 56.6 °F 30.09 in Calm   3.0 mph 92% 0.00 in
07:09 58.9 °F 56.6 °F 30.09 in Calm     92% 0.00 in
07:14 58.8 °F 56.5 °F 30.09 in Calm     92% 0.00 in
07:19 58.8 °F 56.5 °F 30.10 in Calm     92% 0.00 in
07:24 58.7 °F 56.4 °F 30.09 in Calm     92% 0.00 in
07:29 58.8 °F 56.5 °F 30.09 in Calm     92% 0.00 in
07:34 58.9 °F 56.6 °F 30.09 in Calm     92% 0.00 in
07:39 59.0 °F 56.7 °F 30.09 in Calm   3.0 mph 92% 0.00 in
07:44 59.2 °F 56.9 °F 30.09 in Calm   3.0 mph 92% 0.00 in
07:49 59.4 °F 57.1 °F 30.09 in Calm   3.0 mph 92% 0.00 in
07:54 59.7 °F 57.1 °F 30.09 in Calm   3.0 mph 91% 0.00 in
07:59 59.9 °F 57.3 °F 30.09 in Calm     91% 0.00 in
08:04 60.2 °F 57.6 °F 30.09 in Calm     91% 0.00 in
08:09 60.6 °F 58.0 °F 30.09 in SE 1.0 mph 2.0 mph 91% 0.00 in
08:14 60.9 °F 57.9 °F 30.09 in Calm   3.0 mph 90% 0.00 in
08:19 61.3 °F 58.3 °F 30.09 in Calm   4.0 mph 90% 0.00 in
08:24 61.8 °F 58.8 °F 30.10 in Calm   4.0 mph 90% 0.00 in
08:29 62.2 °F 58.9 °F 30.10 in Calm   3.0 mph 89% 0.00 in
08:34 62.7 °F 59.1 °F 30.10 in Calm     88% 0.00 in
08:39 63.3 °F 59.4 °F 30.10 in Calm     87% 0.00 in
08:44 63.8 °F 59.5 °F 30.10 in Calm     86% 0.00 in
08:49 64.3 °F 59.7 °F 30.10 in Calm     85% 0.00 in
08:54 64.7 °F 60.1 °F 30.10 in Calm   1.0 mph 85% 0.00 in
08:59 65.6 °F 60.6 °F 30.10 in Calm     84% 0.00 in
09:04 66.1 °F 60.8 °F 30.10 in Calm     83% 0.00 in
09:09 66.8 °F 61.1 °F 30.10 in Calm     82% 0.00 in
09:14 67.0 °F 61.3 °F 30.11 in Calm     82% 0.00 in
09:19 67.5 °F 61.8 °F 30.10 in Calm     82% 0.00 in
09:24 68.0 °F 61.9 °F 30.10 in Calm     81% 0.00 in
09:29 68.5 °F 62.1 °F 30.10 in Calm     80% 0.00 in
09:34 69.0 °F 62.6 °F 30.10 in SE 1.0 mph 2.0 mph 80% 0.00 in
09:39 69.5 °F 62.7 °F 30.10 in Calm   3.0 mph 79% 0.00 in
09:44 69.9 °F 63.1 °F 30.10 in Calm   3.0 mph 79% 0.00 in
09:49 70.5 °F 63.3 °F 30.10 in Calm   2.0 mph 78% 0.00 in
09:54 71.2 °F 63.6 °F 30.10 in ESE 1.0 mph 7.0 mph 77% 0.00 in
09:59 71.5 °F 63.5 °F 30.10 in East 3.0 mph 6.0 mph 76% 0.00 in
10:04 71.8 °F 63.8 °F 30.10 in ESE 2.0 mph 4.0 mph 76% 0.00 in
10:09 72.6 °F 63.8 °F 30.10 in East 2.0 mph 7.0 mph 74% 0.00 in
10:14 72.6 °F 63.8 °F 30.10 in ENE 4.0 mph 8.0 mph 74% 0.00 in
10:19 73.0 °F 64.2 °F 30.10 in ESE 2.0 mph 9.0 mph 74% 0.00 in
10:24 73.2 °F 64.4 °F 30.10 in East 6.0 mph 7.0 mph 74% 0.00 in
10:29 73.7 °F 64.5 °F 30.10 in SE 4.0 mph 8.0 mph 73% 0.00 in
10:34 73.8 °F 64.6 °F 30.10 in ESE 3.0 mph 8.0 mph 73% 0.00 in
10:39 74.1 °F 64.9 °F 30.10 in ESE 2.0 mph 7.0 mph 73% 0.00 in
10:44 74.7 °F 64.7 °F 30.11 in East 2.0 mph 5.0 mph 71% 0.00 in
10:49 75.1 °F 65.1 °F 30.11 in East 2.0 mph 5.0 mph 71% 0.00 in
10:54 75.4 °F 64.5 °F 30.11 in East 2.0 mph 5.0 mph 69% 0.00 in
10:59 75.6 °F 65.1 °F 30.10 in NE 4.0 mph 5.0 mph 70% 0.00 in
11:04 75.9 °F 65.0 °F 30.10 in ENE 2.0 mph 7.0 mph 69% 0.00 in
11:09 76.4 °F 65.1 °F 30.10 in ENE 1.0 mph 7.0 mph 68% 0.00 in
11:14 76.6 °F 65.2 °F 30.10 in NE 5.0 mph 5.0 mph 68% 0.00 in
11:19 76.7 °F 65.3 °F 30.10 in East 2.0 mph 8.0 mph 68% 0.00 in
11:24 77.2 °F 65.8 °F 30.10 in SE 2.0 mph 6.0 mph 68% 0.00 in
11:29 77.6 °F 64.5 °F 30.10 in East 2.0 mph 5.0 mph 64% 0.00 in
11:34 78.4 °F 66.5 °F 30.10 in Calm   5.0 mph 67% 0.00 in
11:39 78.0 °F 65.3 °F 30.10 in ESE 1.0 mph 6.0 mph 65% 0.00 in
11:44 78.4 °F 65.7 °F 30.10 in East 2.0 mph 6.0 mph 65% 0.00 in
11:49 78.4 °F 65.7 °F 30.10 in ENE 3.0 mph 8.0 mph 65% 0.00 in
11:54 78.7 °F 65.9 °F 30.10 in East 2.0 mph 8.0 mph 65% 0.00 in
11:59 79.2 °F 66.4 °F 30.10 in East 3.0 mph 5.0 mph 65% 0.00 in
12:04 78.8 °F 65.6 °F 30.09 in East 3.0 mph 6.0 mph 64% 0.00 in
12:09 78.9 °F 66.1 °F 30.10 in ENE 3.0 mph 7.0 mph 65% 0.00 in
12:14 79.5 °F 65.8 °F 30.09 in ESE 2.0 mph 6.0 mph 63% 0.00 in
12:19 79.7 °F 65.5 °F 30.09 in ESE 4.0 mph 7.0 mph 62% 0.00 in
12:24 79.4 °F 65.2 °F 30.09 in East 2.0 mph 8.0 mph 62% 0.00 in
12:29 79.3 °F 65.6 °F 30.09 in Calm   5.0 mph 63% 0.00 in
12:34 80.0 °F 66.3 °F 30.09 in ENE 2.0 mph 7.0 mph 63% 0.00 in
12:39 79.9 °F 64.8 °F 30.09 in ENE 2.0 mph 7.0 mph 60% 0.00 in
12:44 80.7 °F 66.5 °F 30.08 in East 3.0 mph 5.0 mph 62% 0.00 in
12:49 80.8 °F 65.6 °F 30.08 in NE 3.0 mph 6.0 mph 60% 0.00 in
12:54 81.4 °F 65.7 °F 30.09 in East 2.0 mph 8.0 mph 59% 0.00 in
12:59 81.4 °F 64.7 °F 30.09 in East 6.0 mph 9.0 mph 57% 0.00 in
13:04 81.1 °F 63.4 °F 30.08 in ESE 2.0 mph 9.0 mph 55% 0.00 in
13:09 81.2 °F 65.0 °F 30.08 in SE 3.0 mph 7.0 mph 58% 0.00 in
13:14 81.3 °F 64.6 °F 30.08 in ESE 4.0 mph 8.0 mph 57% 0.00 in
13:19 82.0 °F 64.8 °F 30.08 in East 4.0 mph 8.0 mph 56% 0.00 in
13:24 81.8 °F 65.1 °F 30.08 in ESE 3.0 mph 8.0 mph 57% 0.00 in
13:29 82.4 °F 64.1 °F 30.08 in ENE 3.0 mph 6.0 mph 54% 0.00 in
13:34 82.6 °F 63.2 °F 30.08 in ENE 5.0 mph 9.0 mph 52% 0.00 in
13:39 82.3 °F 62.9 °F 30.07 in NE 4.0 mph 7.0 mph 52% 0.00 in
13:44 82.6 °F 62.6 °F 30.07 in NE 6.0 mph 10.0 mph 51% 0.00 in
13:49 82.6 °F 63.7 °F 30.07 in SE 2.0 mph 9.0 mph 53% 0.00 in
13:54 82.9 °F 62.9 °F 30.07 in ENE 4.0 mph 9.0 mph 51% 0.00 in
13:59 82.7 °F 62.7 °F 30.07 in ENE 1.0 mph 7.0 mph 51% 0.00 in
14:04 82.7 °F 63.3 °F 30.07 in East 2.0 mph 7.0 mph 52% 0.00 in
14:09 83.6 °F 64.1 °F 30.07 in ESE 2.0 mph 7.0 mph 52% 0.00 in
14:14 83.6 °F 62.4 °F 30.07 in East 2.0 mph 7.0 mph 49% 0.00 in
14:19 83.6 °F 63.0 °F 30.07 in ENE 2.0 mph 7.0 mph 50% 0.00 in
14:24 83.4 °F 63.9 °F 30.07 in ENE 2.0 mph 6.0 mph 52% 0.00 in
14:29 83.7 °F 63.7 °F 30.07 in ENE 2.0 mph 6.0 mph 51% 0.00 in
14:34 83.6 °F 62.4 °F 30.07 in ENE 2.0 mph 9.0 mph 49% 0.00 in
14:39 83.4 °F 63.4 °F 30.07 in NE 3.0 mph 7.0 mph 51% 0.00 in
14:44 83.4 °F 62.8 °F 30.07 in ENE 1.0 mph 5.0 mph 50% 0.00 in
14:49 83.5 °F 62.3 °F 30.07 in SE 3.0 mph 8.0 mph 49% 0.00 in
14:54 83.8 °F 63.2 °F 30.07 in NE 7.0 mph 11.0 mph 50% 0.00 in
14:59 83.7 °F 64.2 °F 30.07 in SE 3.0 mph 10.0 mph 52% 0.00 in
15:04 84.1 °F 62.9 °F 30.07 in East 3.0 mph 10.0 mph 49% 0.00 in
15:09 84.9 °F 63.6 °F 30.07 in East 2.0 mph 7.0 mph 49% 0.00 in
15:14 84.3 °F 62.5 °F 30.07 in ENE 3.0 mph 8.0 mph 48% 0.00 in
15:19 84.5 °F 62.7 °F 30.07 in ENE 3.0 mph 8.0 mph 48% 0.00 in
15:24 84.5 °F 64.4 °F 30.06 in ENE 3.0 mph 8.0 mph 51% 0.00 in
15:29 84.4 °F 62.0 °F 30.06 in ENE 1.0 mph 5.0 mph 47% 0.00 in
15:34 84.4 °F 64.9 °F 30.06 in NNE 3.0 mph 8.0 mph 52% 0.00 in
15:39 84.2 °F 63.5 °F 30.06 in NE 2.0 mph 8.0 mph 50% 0.00 in
15:44 83.9 °F 62.7 °F 30.06 in NE 2.0 mph 8.0 mph 49% 0.00 in
15:49 84.1 °F 63.5 °F 30.06 in NE 2.0 mph 5.0 mph 50% 0.00 in
15:54 84.0 °F 62.8 °F 30.06 in NE 3.0 mph 5.0 mph 49% 0.00 in
15:59 84.0 °F 62.8 °F 30.06 in ENE 3.0 mph 5.0 mph 49% 0.00 in
16:04 84.6 °F 63.9 °F 30.06 in ENE 1.0 mph 4.0 mph 50% 0.00 in
16:09 84.2 °F 61.8 °F 30.06 in ENE 3.0 mph 9.0 mph 47% 0.00 in
16:14 84.3 °F 62.5 °F 30.06 in ENE 4.0 mph 9.0 mph 48% 0.00 in
16:19 84.4 °F 62.6 °F 30.06 in Calm   4.0 mph 48% 0.00 in
16:24 84.2 °F 62.4 °F 30.06 in NE 1.0 mph 5.0 mph 48% 0.00 in
16:29 84.3 °F 62.5 °F 30.06 in ENE 3.0 mph 7.0 mph 48% 0.00 in
16:34 84.5 °F 60.8 °F 30.06 in East 2.0 mph 6.0 mph 45% 0.00 in
16:39 84.6 °F 60.9 °F 30.06 in East 2.0 mph 6.0 mph 45% 0.00 in
16:44 84.4 °F 61.4 °F 30.06 in East 2.0 mph 5.0 mph 46% 0.00 in
16:49 84.1 °F 61.7 °F 30.06 in ENE 2.0 mph 7.0 mph 47% 0.00 in
16:54 83.6 °F 61.8 °F 30.06 in NE 2.0 mph 7.0 mph 48% 0.00 in
16:59 83.9 °F 62.1 °F 30.06 in NE 5.0 mph 5.0 mph 48% 0.00 in
17:04 83.8 °F 62.6 °F 30.06 in ENE 3.0 mph 8.0 mph 49% 0.00 in
17:09 83.2 °F 62.6 °F 30.06 in ENE 3.0 mph 7.0 mph 50% 0.00 in
17:14 82.7 °F 63.8 °F 30.06 in NE 3.0 mph 9.0 mph 53% 0.00 in
17:19 82.4 °F 63.5 °F 30.06 in ENE 5.0 mph 8.0 mph 53% 0.00 in
17:24 82.2 °F 64.4 °F 30.06 in NE 4.0 mph 6.0 mph 55% 0.00 in
17:29 82.1 °F 64.3 °F 30.07 in ENE 1.0 mph 8.0 mph 55% 0.00 in
17:34 82.3 °F 64.5 °F 30.07 in NE 4.0 mph 7.0 mph 55% 0.00 in
17:39 82.2 °F 64.4 °F 30.07 in ENE 3.0 mph 7.0 mph 55% 0.00 in
17:44 81.8 °F 64.6 °F 30.07 in ENE 4.0 mph 10.0 mph 56% 0.00 in
17:49 81.6 °F 64.4 °F 30.06 in ENE 4.0 mph 10.0 mph 56% 0.00 in
17:59 81.0 °F 64.3 °F 30.06 in ENE 3.0 mph 9.0 mph 57% 0.00 in
18:04 80.6 °F 64.5 °F 30.06 in ENE 3.0 mph 8.0 mph 58% 0.00 in
18:09 80.3 °F 64.2 °F 30.06 in ENE 3.0 mph 7.0 mph 58% 0.00 in
18:14 80.2 °F 64.6 °F 30.06 in ENE 5.0 mph 8.0 mph 59% 0.00 in
18:19 80.0 °F 64.4 °F 30.06 in ENE 1.0 mph 7.0 mph 59% 0.00 in
18:24 79.6 °F 64.5 °F 30.07 in Calm   5.0 mph 60% 0.00 in
18:29 79.6 °F 64.0 °F 30.06 in East 6.0 mph 7.0 mph 59% 0.00 in
18:34 79.6 °F 64.0 °F 30.07 in ENE 2.0 mph 8.0 mph 59% 0.00 in
18:39 79.3 °F 64.2 °F 30.07 in ENE 3.0 mph 8.0 mph 60% 0.00 in
18:44 79.0 °F 63.4 °F 30.07 in ENE 3.0 mph 8.0 mph 59% 0.00 in
18:49 78.8 °F 63.3 °F 30.06 in NE 3.0 mph 7.0 mph 59% 0.00 in
18:54 78.7 °F 64.6 °F 30.07 in NE 3.0 mph 9.0 mph 62% 0.00 in
18:59 78.3 °F 66.9 °F 30.07 in NE 4.0 mph 9.0 mph 68% 0.00 in
19:04 77.7 °F 67.1 °F 30.07 in NE 10.0 mph 10.0 mph 70% 0.00 in
19:09 77.2 °F 67.5 °F 30.07 in ENE 1.0 mph 13.0 mph 72% 0.00 in
19:14 76.6 °F 67.3 °F 30.07 in Calm   7.0 mph 73% 0.00 in
19:19 76.2 °F 66.9 °F 30.07 in ENE 8.0 mph 9.0 mph 73% 0.00 in
19:24 76.0 °F 66.7 °F 30.08 in ENE 4.0 mph 10.0 mph 73% 0.00 in
19:29 75.7 °F 66.4 °F 30.08 in NE 3.0 mph 11.0 mph 73% 0.00 in
19:34 75.4 °F 66.5 °F 30.08 in ENE 4.0 mph 10.0 mph 74% 0.00 in
19:39 75.1 °F 66.2 °F 30.08 in NE 7.0 mph 10.0 mph 74% 0.00 in
19:44 74.8 °F 66.0 °F 30.08 in ENE 5.0 mph 10.0 mph 74% 0.00 in
19:49 74.6 °F 65.8 °F 30.08 in ENE 4.0 mph 9.0 mph 74% 0.00 in
19:54 74.4 °F 65.6 °F 30.08 in ENE 4.0 mph 9.0 mph 74% 0.00 in
19:59 74.1 °F 65.3 °F 30.08 in ENE 5.0 mph 10.0 mph 74% 0.00 in
20:04 73.9 °F 65.5 °F 30.08 in ENE 4.0 mph 10.0 mph 75% 0.00 in
20:09 73.7 °F 65.3 °F 30.08 in ENE 2.0 mph 9.0 mph 75% 0.00 in
20:14 73.5 °F 65.1 °F 30.08 in NE 4.0 mph 9.0 mph 75% 0.00 in
20:19 73.3 °F 64.9 °F 30.08 in East 5.0 mph 9.0 mph 75% 0.00 in
20:24 73.1 °F 64.7 °F 30.09 in ENE 4.0 mph 9.0 mph 75% 0.00 in
20:29 72.9 °F 64.5 °F 30.09 in NE 6.0 mph 9.0 mph 75% 0.00 in
20:34 72.8 °F 64.4 °F 30.09 in ENE 7.0 mph 10.0 mph 75% 0.00 in
20:39 72.6 °F 64.2 °F 30.09 in ENE 3.0 mph 9.0 mph 75% 0.00 in
20:44 72.4 °F 64.0 °F 30.09 in ENE 4.0 mph 9.0 mph 75% 0.00 in
20:49 72.2 °F 63.8 °F 30.09 in ENE 3.0 mph 8.0 mph 75% 0.00 in
20:54 72.1 °F 63.7 °F 30.09 in ENE 3.0 mph 8.0 mph 75% 0.00 in
20:59 71.9 °F 63.5 °F 30.09 in ENE 3.0 mph 8.0 mph 75% 0.00 in
21:04 71.8 °F 63.4 °F 30.10 in ENE 2.0 mph 7.0 mph 75% 0.00 in
21:09 71.6 °F 63.3 °F 30.10 in East 3.0 mph 6.0 mph 75% 0.00 in
21:14 71.5 °F 63.2 °F 30.10 in Calm   5.0 mph 75% 0.00 in
21:19 71.2 °F 62.9 °F 30.10 in ENE 3.0 mph 7.0 mph 75% 0.00 in
21:24 71.0 °F 62.7 °F 30.10 in East 1.0 mph 5.0 mph 75% 0.00 in
21:34 70.6 °F 62.7 °F 30.10 in ESE 1.0 mph 5.0 mph 76% 0.00 in
21:39 70.4 °F 62.5 °F 30.10 in East 3.0 mph 6.0 mph 76% 0.00 in
21:44 70.3 °F 62.4 °F 30.10 in East 1.0 mph 6.0 mph 76% 0.00 in
21:49 70.1 °F 62.2 °F 30.10 in East 1.0 mph 5.0 mph 76% 0.00 in
21:54 70.0 °F 62.1 °F 30.10 in Calm   2.0 mph 76% 0.00 in
21:59 69.7 °F 62.2 °F 30.11 in Calm   1.0 mph 77% 0.00 in
22:04 69.5 °F 62.0 °F 30.11 in Calm   3.0 mph 77% 0.00 in
22:09 69.4 °F 61.9 °F 30.11 in Calm     77% 0.00 in
22:14 69.2 °F 61.7 °F 30.11 in Calm     77% 0.00 in
22:19 69.0 °F 61.5 °F 30.11 in Calm   1.0 mph 77% 0.00 in
22:29 68.7 °F 61.6 °F 30.10 in Calm     78% 0.00 in
22:34 68.5 °F 61.4 °F 30.10 in Calm     78% 0.00 in
22:39 68.4 °F 61.6 °F 30.10 in Calm   3.0 mph 79% 0.00 in
22:44 68.2 °F 61.1 °F 30.10 in Calm   3.0 mph 78% 0.00 in
22:49 68.2 °F 61.4 °F 30.10 in Calm   2.0 mph 79% 0.00 in
22:54 68.0 °F 61.2 °F 30.10 in Calm     79% 0.00 in
22:59 67.9 °F 61.1 °F 30.10 in Calm     79% 0.00 in
23:04 67.7 °F 61.3 °F 30.10 in Calm     80% 0.00 in
23:09 67.5 °F 61.1 °F 30.10 in Calm   5.0 mph 80% 0.00 in
23:14 67.4 °F 61.0 °F 30.10 in Calm   5.0 mph 80% 0.00 in
23:19 67.3 °F 60.9 °F 30.10 in Calm     80% 0.00 in
23:24 67.1 °F 60.7 °F 30.10 in Calm     80% 0.00 in
23:29 67.0 °F 61.0 °F 30.10 in Calm     81% 0.00 in
23:34 66.8 °F 60.8 °F 30.10 in Calm     81% 0.00 in
23:39 66.6 °F 60.6 °F 30.10 in Calm     81% 0.00 in
23:44 66.5 °F 60.5 °F 30.10 in Calm   3.0 mph 81% 0.00 in
23:49 66.5 °F 60.5 °F 30.10 in Calm   2.0 mph 81% 0.00 in
23:54 66.5 °F 60.1 °F 30.10 in Calm   2.0 mph 80% 0.00 in
23:59 66.5 °F 60.1 °F 30.10 in Calm     80% 0.00 in
Buffalo, New York, USA
Compliments of Weather Underground - 2.5 mb